sensor_id;sensor_type;location;lat;lon;timestamp;P1;durP1;ratioP1;P2;durP2;ratioP2
4812;SDS011;2420;51.202;8.698;2022-10-16T00:01:38;11.40;;;7.05;;
4812;SDS011;2420;51.202;8.698;2022-10-16T00:04:04;9.38;;;6.88;;
4812;SDS011;2420;51.202;8.698;2022-10-16T00:06:30;13.13;;;6.93;;
4812;SDS011;2420;51.202;8.698;2022-10-16T00:08:56;11.85;;;7.57;;
4812;SDS011;2420;51.202;8.698;2022-10-16T00:11:23;9.43;;;6.43;;
4812;SDS011;2420;51.202;8.698;2022-10-16T00:13:55;9.32;;;6.30;;
4812;SDS011;2420;51.202;8.698;2022-10-16T00:16:23;10.23;;;5.93;;
4812;SDS011;2420;51.202;8.698;2022-10-16T00:18:49;9.70;;;6.28;;
4812;SDS011;2420;51.202;8.698;2022-10-16T00:21:16;8.98;;;6.18;;
4812;SDS011;2420;51.202;8.698;2022-10-16T00:23:44;9.93;;;5.85;;
4812;SDS011;2420;51.202;8.698;2022-10-16T00:26:12;8.25;;;6.18;;
4812;SDS011;2420;51.202;8.698;2022-10-16T00:28:39;7.45;;;6.13;;
4812;SDS011;2420;51.202;8.698;2022-10-16T00:31:09;7.18;;;5.35;;
4812;SDS011;2420;51.202;8.698;2022-10-16T00:33:36;10.32;;;6.25;;
4812;SDS011;2420;51.202;8.698;2022-10-16T00:36:03;6.65;;;5.25;;
4812;SDS011;2420;51.202;8.698;2022-10-16T00:38:29;8.27;;;5.03;;
4812;SDS011;2420;51.202;8.698;2022-10-16T00:40:55;7.82;;;5.22;;
4812;SDS011;2420;51.202;8.698;2022-10-16T00:46:15;6.25;;;4.55;;
4812;SDS011;2420;51.202;8.698;2022-10-16T00:48:52;6.10;;;4.68;;
4812;SDS011;2420;51.202;8.698;2022-10-16T00:51:33;6.63;;;5.10;;
4812;SDS011;2420;51.202;8.698;2022-10-16T00:54:04;5.50;;;4.40;;
4812;SDS011;2420;51.202;8.698;2022-10-16T00:56:35;7.32;;;4.72;;
4812;SDS011;2420;51.202;8.698;2022-10-16T00:59:01;5.00;;;4.10;;
4812;SDS011;2420;51.202;8.698;2022-10-16T01:01:31;6.07;;;4.65;;
4812;SDS011;2420;51.202;8.698;2022-10-16T01:03:57;5.32;;;4.07;;
4812;SDS011;2420;51.202;8.698;2022-10-16T01:06:35;6.22;;;3.92;;
4812;SDS011;2420;51.202;8.698;2022-10-16T01:11:44;6.13;;;3.97;;
4812;SDS011;2420;51.202;8.698;2022-10-16T01:14:22;6.07;;;3.80;;
4812;SDS011;2420;51.202;8.698;2022-10-16T01:17:04;8.40;;;3.80;;
4812;SDS011;2420;51.202;8.698;2022-10-16T01:22:29;4.60;;;3.42;;
4812;SDS011;2420;51.202;8.698;2022-10-16T01:25:04;4.45;;;3.50;;
4812;SDS011;2420;51.202;8.698;2022-10-16T01:27:34;5.50;;;3.58;;
4812;SDS011;2420;51.202;8.698;2022-10-16T01:32:59;5.03;;;3.72;;
4812;SDS011;2420;51.202;8.698;2022-10-16T01:35:32;4.05;;;3.30;;
4812;SDS011;2420;51.202;8.698;2022-10-16T01:40:41;5.28;;;3.65;;
4812;SDS011;2420;51.202;8.698;2022-10-16T01:43:12;6.25;;;4.10;;
4812;SDS011;2420;51.202;8.698;2022-10-16T01:46:01;5.60;;;4.00;;
4812;SDS011;2420;51.202;8.698;2022-10-16T01:48:27;4.95;;;4.18;;
4812;SDS011;2420;51.202;8.698;2022-10-16T01:50:59;6.35;;;3.90;;
4812;SDS011;2420;51.202;8.698;2022-10-16T01:53:29;6.05;;;4.50;;
4812;SDS011;2420;51.202;8.698;2022-10-16T01:55:56;4.82;;;3.63;;
4812;SDS011;2420;51.202;8.698;2022-10-16T01:58:25;4.88;;;3.78;;
4812;SDS011;2420;51.202;8.698;2022-10-16T02:00:52;5.47;;;4.00;;
4812;SDS011;2420;51.202;8.698;2022-10-16T02:03:19;4.95;;;3.70;;
4812;SDS011;2420;51.202;8.698;2022-10-16T02:05:47;5.97;;;3.90;;
4812;SDS011;2420;51.202;8.698;2022-10-16T02:08:19;4.30;;;3.50;;
4812;SDS011;2420;51.202;8.698;2022-10-16T02:10:45;7.45;;;3.72;;
4812;SDS011;2420;51.202;8.698;2022-10-16T02:13:45;5.05;;;3.40;;
4812;SDS011;2420;51.202;8.698;2022-10-16T02:16:15;4.65;;;3.60;;
4812;SDS011;2420;51.202;8.698;2022-10-16T02:18:41;3.97;;;3.58;;
4812;SDS011;2420;51.202;8.698;2022-10-16T02:23:51;5.20;;;4.05;;
4812;SDS011;2420;51.202;8.698;2022-10-16T02:29:04;4.18;;;3.65;;
4812;SDS011;2420;51.202;8.698;2022-10-16T02:31:35;5.55;;;3.80;;
4812;SDS011;2420;51.202;8.698;2022-10-16T02:34:06;7.55;;;3.90;;
4812;SDS011;2420;51.202;8.698;2022-10-16T02:36:33;4.25;;;3.75;;
4812;SDS011;2420;51.202;8.698;2022-10-16T02:39:00;4.07;;;3.40;;
4812;SDS011;2420;51.202;8.698;2022-10-16T02:41:26;5.47;;;3.28;;
4812;SDS011;2420;51.202;8.698;2022-10-16T02:43:52;5.95;;;3.70;;
4812;SDS011;2420;51.202;8.698;2022-10-16T02:46:20;5.15;;;3.38;;
4812;SDS011;2420;51.202;8.698;2022-10-16T02:48:46;6.45;;;3.55;;
4812;SDS011;2420;51.202;8.698;2022-10-16T02:51:12;4.68;;;3.42;;
4812;SDS011;2420;51.202;8.698;2022-10-16T02:53:37;4.65;;;3.22;;
4812;SDS011;2420;51.202;8.698;2022-10-16T02:56:03;3.80;;;3.20;;
4812;SDS011;2420;51.202;8.698;2022-10-16T02:58:28;4.03;;;3.10;;
4812;SDS011;2420;51.202;8.698;2022-10-16T03:00:54;5.63;;;3.50;;
4812;SDS011;2420;51.202;8.698;2022-10-16T03:03:20;4.53;;;3.17;;
4812;SDS011;2420;51.202;8.698;2022-10-16T03:05:46;6.55;;;3.90;;
4812;SDS011;2420;51.202;8.698;2022-10-16T03:08:12;5.65;;;3.92;;
4812;SDS011;2420;51.202;8.698;2022-10-16T03:10:38;11.48;;;5.88;;
4812;SDS011;2420;51.202;8.698;2022-10-16T03:13:03;11.18;;;6.38;;
4812;SDS011;2420;51.202;8.698;2022-10-16T03:15:29;9.10;;;5.90;;
4812;SDS011;2420;51.202;8.698;2022-10-16T03:17:57;8.50;;;5.50;;
4812;SDS011;2420;51.202;8.698;2022-10-16T03:20:23;9.80;;;7.13;;
4812;SDS011;2420;51.202;8.698;2022-10-16T03:22:49;10.43;;;7.07;;
4812;SDS011;2420;51.202;8.698;2022-10-16T03:25:15;10.82;;;6.90;;
4812;SDS011;2420;51.202;8.698;2022-10-16T03:27:40;10.43;;;7.25;;
4812;SDS011;2420;51.202;8.698;2022-10-16T03:30:06;9.68;;;7.10;;
4812;SDS011;2420;51.202;8.698;2022-10-16T03:32:32;10.27;;;7.20;;
4812;SDS011;2420;51.202;8.698;2022-10-16T03:34:58;7.53;;;5.65;;
4812;SDS011;2420;51.202;8.698;2022-10-16T03:37:23;7.88;;;5.32;;
4812;SDS011;2420;51.202;8.698;2022-10-16T03:39:49;6.95;;;5.38;;
4812;SDS011;2420;51.202;8.698;2022-10-16T03:42:14;6.47;;;5.03;;
4812;SDS011;2420;51.202;8.698;2022-10-16T03:44:43;5.88;;;4.70;;
4812;SDS011;2420;51.202;8.698;2022-10-16T03:47:08;4.90;;;4.13;;
4812;SDS011;2420;51.202;8.698;2022-10-16T03:49:34;7.28;;;4.28;;
4812;SDS011;2420;51.202;8.698;2022-10-16T03:51:59;4.18;;;3.38;;
4812;SDS011;2420;51.202;8.698;2022-10-16T03:54:25;5.97;;;3.65;;
4812;SDS011;2420;51.202;8.698;2022-10-16T03:56:51;5.43;;;3.70;;
4812;SDS011;2420;51.202;8.698;2022-10-16T03:59:16;4.28;;;3.47;;
4812;SDS011;2420;51.202;8.698;2022-10-16T04:01:42;5.38;;;3.30;;
4812;SDS011;2420;51.202;8.698;2022-10-16T04:04:07;4.60;;;3.60;;
4812;SDS011;2420;51.202;8.698;2022-10-16T04:06:33;5.53;;;3.30;;
4812;SDS011;2420;51.202;8.698;2022-10-16T04:08:58;4.10;;;3.42;;
4812;SDS011;2420;51.202;8.698;2022-10-16T04:11:24;6.13;;;4.22;;
4812;SDS011;2420;51.202;8.698;2022-10-16T04:13:50;6.60;;;4.50;;
4812;SDS011;2420;51.202;8.698;2022-10-16T04:16:15;6.97;;;4.28;;
4812;SDS011;2420;51.202;8.698;2022-10-16T04:18:41;7.22;;;4.15;;
4812;SDS011;2420;51.202;8.698;2022-10-16T04:21:06;4.22;;;3.78;;
4812;SDS011;2420;51.202;8.698;2022-10-16T04:23:32;5.57;;;4.30;;
4812;SDS011;2420;51.202;8.698;2022-10-16T04:25:58;5.32;;;4.57;;
4812;SDS011;2420;51.202;8.698;2022-10-16T04:28:24;5.47;;;4.35;;
4812;SDS011;2420;51.202;8.698;2022-10-16T04:30:50;5.40;;;4.30;;
4812;SDS011;2420;51.202;8.698;2022-10-16T04:33:15;6.00;;;4.55;;
4812;SDS011;2420;51.202;8.698;2022-10-16T04:35:41;5.10;;;4.40;;
4812;SDS011;2420;51.202;8.698;2022-10-16T04:38:06;5.53;;;4.15;;
4812;SDS011;2420;51.202;8.698;2022-10-16T04:40:32;7.35;;;4.47;;
4812;SDS011;2420;51.202;8.698;2022-10-16T04:42:58;4.97;;;3.90;;
4812;SDS011;2420;51.202;8.698;2022-10-16T04:45:24;5.15;;;4.22;;
4812;SDS011;2420;51.202;8.698;2022-10-16T04:47:50;8.68;;;5.03;;
4812;SDS011;2420;51.202;8.698;2022-10-16T04:50:15;7.57;;;5.15;;
4812;SDS011;2420;51.202;8.698;2022-10-16T04:52:41;7.80;;;5.70;;
4812;SDS011;2420;51.202;8.698;2022-10-16T04:55:07;6.60;;;5.30;;
4812;SDS011;2420;51.202;8.698;2022-10-16T04:57:32;5.90;;;5.15;;
4812;SDS011;2420;51.202;8.698;2022-10-16T04:59:58;5.55;;;4.65;;
4812;SDS011;2420;51.202;8.698;2022-10-16T05:02:24;7.15;;;5.97;;
4812;SDS011;2420;51.202;8.698;2022-10-16T05:04:50;6.75;;;5.47;;
4812;SDS011;2420;51.202;8.698;2022-10-16T05:07:16;8.13;;;5.50;;
4812;SDS011;2420;51.202;8.698;2022-10-16T05:09:42;6.25;;;5.55;;
4812;SDS011;2420;51.202;8.698;2022-10-16T05:12:07;7.88;;;5.25;;
4812;SDS011;2420;51.202;8.698;2022-10-16T05:14:33;6.57;;;5.50;;
4812;SDS011;2420;51.202;8.698;2022-10-16T05:16:59;6.47;;;5.40;;
4812;SDS011;2420;51.202;8.698;2022-10-16T05:19:25;7.75;;;5.72;;
4812;SDS011;2420;51.202;8.698;2022-10-16T05:21:51;6.50;;;5.68;;
4812;SDS011;2420;51.202;8.698;2022-10-16T05:24:16;6.28;;;5.07;;
4812;SDS011;2420;51.202;8.698;2022-10-16T05:26:42;6.15;;;5.35;;
4812;SDS011;2420;51.202;8.698;2022-10-16T05:29:07;5.57;;;4.95;;
4812;SDS011;2420;51.202;8.698;2022-10-16T05:31:34;7.00;;;5.65;;
4812;SDS011;2420;51.202;8.698;2022-10-16T05:33:59;6.05;;;5.40;;
4812;SDS011;2420;51.202;8.698;2022-10-16T05:36:26;6.75;;;5.47;;
4812;SDS011;2420;51.202;8.698;2022-10-16T05:38:51;6.60;;;5.50;;
4812;SDS011;2420;51.202;8.698;2022-10-16T05:41:17;6.53;;;5.20;;
4812;SDS011;2420;51.202;8.698;2022-10-16T05:43:49;6.93;;;5.47;;
4812;SDS011;2420;51.202;8.698;2022-10-16T05:46:15;8.73;;;5.32;;
4812;SDS011;2420;51.202;8.698;2022-10-16T05:48:41;5.88;;;5.22;;
4812;SDS011;2420;51.202;8.698;2022-10-16T05:51:08;5.63;;;4.78;;
4812;SDS011;2420;51.202;8.698;2022-10-16T05:53:35;6.10;;;5.13;;
4812;SDS011;2420;51.202;8.698;2022-10-16T05:56:02;7.00;;;5.35;;
4812;SDS011;2420;51.202;8.698;2022-10-16T05:58:29;6.75;;;5.60;;
4812;SDS011;2420;51.202;8.698;2022-10-16T06:00:57;6.28;;;5.10;;
4812;SDS011;2420;51.202;8.698;2022-10-16T06:03:25;6.53;;;5.13;;
4812;SDS011;2420;51.202;8.698;2022-10-16T06:05:51;8.48;;;5.00;;
4812;SDS011;2420;51.202;8.698;2022-10-16T06:08:17;6.20;;;5.45;;
4812;SDS011;2420;51.202;8.698;2022-10-16T06:10:45;6.22;;;4.82;;
4812;SDS011;2420;51.202;8.698;2022-10-16T06:13:11;6.13;;;5.28;;
4812;SDS011;2420;51.202;8.698;2022-10-16T06:15:38;9.75;;;7.28;;
4812;SDS011;2420;51.202;8.698;2022-10-16T06:18:06;8.98;;;7.30;;
4812;SDS011;2420;51.202;8.698;2022-10-16T06:20:32;9.82;;;7.43;;
4812;SDS011;2420;51.202;8.698;2022-10-16T06:22:58;12.68;;;7.75;;
4812;SDS011;2420;51.202;8.698;2022-10-16T06:25:23;11.77;;;7.80;;
4812;SDS011;2420;51.202;8.698;2022-10-16T06:27:49;16.38;;;10.57;;
4812;SDS011;2420;51.202;8.698;2022-10-16T06:30:14;5.70;;;5.10;;
4812;SDS011;2420;51.202;8.698;2022-10-16T06:32:40;5.70;;;5.00;;
4812;SDS011;2420;51.202;8.698;2022-10-16T06:35:05;8.23;;;6.53;;
4812;SDS011;2420;51.202;8.698;2022-10-16T06:37:31;7.18;;;6.07;;
4812;SDS011;2420;51.202;8.698;2022-10-16T06:39:57;6.63;;;5.72;;
4812;SDS011;2420;51.202;8.698;2022-10-16T06:42:22;7.18;;;5.65;;
4812;SDS011;2420;51.202;8.698;2022-10-16T06:44:48;6.30;;;4.60;;
4812;SDS011;2420;51.202;8.698;2022-10-16T06:47:13;6.90;;;4.28;;
4812;SDS011;2420;51.202;8.698;2022-10-16T06:49:39;4.20;;;3.80;;
4812;SDS011;2420;51.202;8.698;2022-10-16T06:52:04;4.85;;;3.75;;
4812;SDS011;2420;51.202;8.698;2022-10-16T06:54:30;4.65;;;4.15;;
4812;SDS011;2420;51.202;8.698;2022-10-16T06:56:55;7.00;;;4.00;;
4812;SDS011;2420;51.202;8.698;2022-10-16T06:59:21;4.32;;;3.92;;
4812;SDS011;2420;51.202;8.698;2022-10-16T07:01:47;4.63;;;4.18;;
4812;SDS011;2420;51.202;8.698;2022-10-16T07:04:13;4.45;;;3.90;;
4812;SDS011;2420;51.202;8.698;2022-10-16T07:06:38;7.00;;;4.00;;
4812;SDS011;2420;51.202;8.698;2022-10-16T07:09:06;4.68;;;3.78;;
4812;SDS011;2420;51.202;8.698;2022-10-16T07:11:34;7.38;;;3.83;;
4812;SDS011;2420;51.202;8.698;2022-10-16T07:14:00;5.57;;;3.97;;
4812;SDS011;2420;51.202;8.698;2022-10-16T07:16:27;5.95;;;3.97;;
4812;SDS011;2420;51.202;8.698;2022-10-16T07:18:54;6.55;;;4.38;;
4812;SDS011;2420;51.202;8.698;2022-10-16T07:21:23;4.55;;;3.97;;
4812;SDS011;2420;51.202;8.698;2022-10-16T07:23:51;4.05;;;3.47;;
4812;SDS011;2420;51.202;8.698;2022-10-16T07:26:17;5.13;;;3.80;;
4812;SDS011;2420;51.202;8.698;2022-10-16T07:28:43;4.00;;;3.60;;
4812;SDS011;2420;51.202;8.698;2022-10-16T07:31:10;4.05;;;3.53;;
4812;SDS011;2420;51.202;8.698;2022-10-16T07:33:38;4.30;;;3.90;;
4812;SDS011;2420;51.202;8.698;2022-10-16T07:36:04;4.50;;;3.88;;
4812;SDS011;2420;51.202;8.698;2022-10-16T07:38:30;4.57;;;3.58;;
4812;SDS011;2420;51.202;8.698;2022-10-16T07:40:59;4.13;;;3.35;;
4812;SDS011;2420;51.202;8.698;2022-10-16T07:43:26;3.50;;;3.15;;
4812;SDS011;2420;51.202;8.698;2022-10-16T07:45:52;6.05;;;3.90;;
4812;SDS011;2420;51.202;8.698;2022-10-16T07:48:18;5.32;;;3.70;;
4812;SDS011;2420;51.202;8.698;2022-10-16T07:50:44;5.47;;;3.55;;
4812;SDS011;2420;51.202;8.698;2022-10-16T07:53:10;4.10;;;3.55;;
4812;SDS011;2420;51.202;8.698;2022-10-16T07:55:36;3.45;;;3.15;;
4812;SDS011;2420;51.202;8.698;2022-10-16T07:58:02;5.88;;;3.45;;
4812;SDS011;2420;51.202;8.698;2022-10-16T08:00:28;3.70;;;3.40;;
4812;SDS011;2420;51.202;8.698;2022-10-16T08:02:53;4.07;;;3.50;;
4812;SDS011;2420;51.202;8.698;2022-10-16T08:05:19;4.00;;;3.60;;
4812;SDS011;2420;51.202;8.698;2022-10-16T08:07:48;4.80;;;3.30;;
4812;SDS011;2420;51.202;8.698;2022-10-16T08:10:18;3.47;;;3.17;;
4812;SDS011;2420;51.202;8.698;2022-10-16T08:12:45;3.78;;;3.47;;
4812;SDS011;2420;51.202;8.698;2022-10-16T08:15:10;4.43;;;3.03;;
4812;SDS011;2420;51.202;8.698;2022-10-16T08:17:36;3.58;;;3.10;;
4812;SDS011;2420;51.202;8.698;2022-10-16T08:20:02;5.57;;;2.97;;
4812;SDS011;2420;51.202;8.698;2022-10-16T08:22:28;5.47;;;2.92;;
4812;SDS011;2420;51.202;8.698;2022-10-16T08:24:54;2.88;;;2.58;;
4812;SDS011;2420;51.202;8.698;2022-10-16T08:27:19;4.18;;;3.17;;
4812;SDS011;2420;51.202;8.698;2022-10-16T08:29:45;3.25;;;2.90;;
4812;SDS011;2420;51.202;8.698;2022-10-16T08:32:11;3.38;;;2.90;;
4812;SDS011;2420;51.202;8.698;2022-10-16T08:34:36;3.63;;;3.00;;
4812;SDS011;2420;51.202;8.698;2022-10-16T08:37:02;4.40;;;3.10;;
4812;SDS011;2420;51.202;8.698;2022-10-16T08:39:28;3.20;;;2.88;;
4812;SDS011;2420;51.202;8.698;2022-10-16T08:42:15;3.42;;;3.13;;
4812;SDS011;2420;51.202;8.698;2022-10-16T08:47:46;5.82;;;3.15;;
4812;SDS011;2420;51.202;8.698;2022-10-16T08:50:32;4.22;;;2.78;;
4812;SDS011;2420;51.202;8.698;2022-10-16T08:53:03;3.38;;;2.85;;
4812;SDS011;2420;51.202;8.698;2022-10-16T08:55:38;3.10;;;2.80;;
4812;SDS011;2420;51.202;8.698;2022-10-16T08:58:12;4.35;;;3.13;;
4812;SDS011;2420;51.202;8.698;2022-10-16T09:00:39;6.22;;;4.25;;
4812;SDS011;2420;51.202;8.698;2022-10-16T09:06:26;3.25;;;2.72;;
4812;SDS011;2420;51.202;8.698;2022-10-16T09:11:57;4.45;;;2.42;;
4812;SDS011;2420;51.202;8.698;2022-10-16T09:17:27;5.18;;;2.33;;
4812;SDS011;2420;51.202;8.698;2022-10-16T09:22:38;2.80;;;2.28;;
4812;SDS011;2420;51.202;8.698;2022-10-16T09:25:14;3.08;;;1.98;;
4812;SDS011;2420;51.202;8.698;2022-10-16T09:27:45;4.35;;;2.50;;
4812;SDS011;2420;51.202;8.698;2022-10-16T09:30:15;2.75;;;1.90;;
4812;SDS011;2420;51.202;8.698;2022-10-16T09:32:43;2.47;;;1.75;;
4812;SDS011;2420;51.202;8.698;2022-10-16T09:35:14;1.65;;;1.55;;
4812;SDS011;2420;51.202;8.698;2022-10-16T09:37:43;2.13;;;1.55;;
4812;SDS011;2420;51.202;8.698;2022-10-16T09:40:23;1.55;;;1.42;;
4812;SDS011;2420;51.202;8.698;2022-10-16T09:43:06;2.70;;;1.75;;
4812;SDS011;2420;51.202;8.698;2022-10-16T09:45:37;1.60;;;1.50;;
4812;SDS011;2420;51.202;8.698;2022-10-16T09:48:10;2.47;;;1.67;;
4812;SDS011;2420;51.202;8.698;2022-10-16T09:50:37;3.65;;;2.92;;
4812;SDS011;2420;51.202;8.698;2022-10-16T09:53:13;2.53;;;2.10;;
4812;SDS011;2420;51.202;8.698;2022-10-16T09:55:52;3.83;;;1.52;;
4812;SDS011;2420;51.202;8.698;2022-10-16T09:58:22;1.50;;;1.40;;
4812;SDS011;2420;51.202;8.698;2022-10-16T10:00:50;2.08;;;1.40;;
4812;SDS011;2420;51.202;8.698;2022-10-16T10:03:37;1.80;;;1.40;;
4812;SDS011;2420;51.202;8.698;2022-10-16T10:14:38;2.05;;;1.20;;
4812;SDS011;2420;51.202;8.698;2022-10-16T10:17:12;1.52;;;1.10;;
4812;SDS011;2420;51.202;8.698;2022-10-16T10:22:23;3.47;;;1.23;;
4812;SDS011;2420;51.202;8.698;2022-10-16T10:25:00;1.50;;;1.40;;
4812;SDS011;2420;51.202;8.698;2022-10-16T10:30:23;0.95;;;0.95;;
4812;SDS011;2420;51.202;8.698;2022-10-16T10:33:07;2.75;;;1.00;;
4812;SDS011;2420;51.202;8.698;2022-10-16T10:38:18;2.35;;;1.30;;
4812;SDS011;2420;51.202;8.698;2022-10-16T10:40:58;3.47;;;1.02;;
4812;SDS011;2420;51.202;8.698;2022-10-16T10:43:40;1.90;;;0.93;;
4812;SDS011;2420;51.202;8.698;2022-10-16T10:46:35;2.05;;;0.90;;
4812;SDS011;2420;51.202;8.698;2022-10-16T10:51:50;1.30;;;0.90;;
4812;SDS011;2420;51.202;8.698;2022-10-16T10:57:19;2.40;;;0.90;;
4812;SDS011;2420;51.202;8.698;2022-10-16T11:02:50;2.75;;;1.10;;
4812;SDS011;2420;51.202;8.698;2022-10-16T11:08:31;0.98;;;0.90;;
4812;SDS011;2420;51.202;8.698;2022-10-16T11:11:00;1.45;;;0.80;;
4812;SDS011;2420;51.202;8.698;2022-10-16T11:13:42;2.80;;;1.02;;
4812;SDS011;2420;51.202;8.698;2022-10-16T11:16:23;1.77;;;1.00;;
4812;SDS011;2420;51.202;8.698;2022-10-16T11:18:59;1.20;;;0.88;;
4812;SDS011;2420;51.202;8.698;2022-10-16T11:21:45;2.40;;;1.05;;
4812;SDS011;2420;51.202;8.698;2022-10-16T11:27:12;0.73;;;0.73;;
4812;SDS011;2420;51.202;8.698;2022-10-16T11:29:45;2.85;;;0.90;;
4812;SDS011;2420;51.202;8.698;2022-10-16T11:32:19;0.90;;;0.77;;
4812;SDS011;2420;51.202;8.698;2022-10-16T11:34:54;2.97;;;0.90;;
4812;SDS011;2420;51.202;8.698;2022-10-16T11:37:26;3.88;;;1.10;;
4812;SDS011;2420;51.202;8.698;2022-10-16T11:40:03;2.88;;;0.77;;
4812;SDS011;2420;51.202;8.698;2022-10-16T11:42:41;1.20;;;1.00;;
4812;SDS011;2420;51.202;8.698;2022-10-16T11:45:24;1.33;;;0.90;;
4812;SDS011;2420;51.202;8.698;2022-10-16T11:48:00;1.02;;;1.00;;
4812;SDS011;2420;51.202;8.698;2022-10-16T11:50:32;2.05;;;1.08;;
4812;SDS011;2420;51.202;8.698;2022-10-16T11:53:03;0.75;;;0.75;;
4812;SDS011;2420;51.202;8.698;2022-10-16T11:55:45;0.75;;;0.73;;
4812;SDS011;2420;51.202;8.698;2022-10-16T11:58:22;1.35;;;0.80;;
4812;SDS011;2420;51.202;8.698;2022-10-16T12:03:35;2.17;;;1.00;;
4812;SDS011;2420;51.202;8.698;2022-10-16T12:08:52;2.08;;;0.90;;
4812;SDS011;2420;51.202;8.698;2022-10-16T12:14:04;2.60;;;0.90;;
4812;SDS011;2420;51.202;8.698;2022-10-16T12:16:37;2.13;;;0.85;;
4812;SDS011;2420;51.202;8.698;2022-10-16T12:19:19;1.45;;;0.80;;
4812;SDS011;2420;51.202;8.698;2022-10-16T12:21:45;2.35;;;0.90;;
4812;SDS011;2420;51.202;8.698;2022-10-16T12:24:31;0.75;;;0.70;;
4812;SDS011;2420;51.202;8.698;2022-10-16T12:27:00;1.23;;;0.90;;
4812;SDS011;2420;51.202;8.698;2022-10-16T12:29:33;0.77;;;0.60;;
4812;SDS011;2420;51.202;8.698;2022-10-16T12:32:03;1.77;;;0.90;;
4812;SDS011;2420;51.202;8.698;2022-10-16T12:36:56;3.95;;;0.95;;
4812;SDS011;2420;51.202;8.698;2022-10-16T12:39:34;0.80;;;0.80;;
4812;SDS011;2420;51.202;8.698;2022-10-16T12:42:02;2.22;;;0.93;;
4812;SDS011;2420;51.202;8.698;2022-10-16T12:44:35;2.22;;;1.00;;
4812;SDS011;2420;51.202;8.698;2022-10-16T12:47:01;1.55;;;0.70;;
4812;SDS011;2420;51.202;8.698;2022-10-16T12:51:53;1.40;;;0.93;;
4812;SDS011;2420;51.202;8.698;2022-10-16T13:05:42;0.88;;;0.88;;
4812;SDS011;2420;51.202;8.698;2022-10-16T13:11:36;1.45;;;1.05;;
4812;SDS011;2420;51.202;8.698;2022-10-16T13:17:22;4.28;;;1.10;;
4812;SDS011;2420;51.202;8.698;2022-10-16T13:28:39;0.80;;;0.80;;
4812;SDS011;2420;51.202;8.698;2022-10-16T13:31:05;6.80;;;0.98;;
4812;SDS011;2420;51.202;8.698;2022-10-16T13:33:47;0.80;;;0.80;;
4812;SDS011;2420;51.202;8.698;2022-10-16T13:36:24;1.88;;;1.40;;
4812;SDS011;2420;51.202;8.698;2022-10-16T13:39:06;1.25;;;1.08;;
4812;SDS011;2420;51.202;8.698;2022-10-16T13:41:36;0.90;;;0.90;;
4812;SDS011;2420;51.202;8.698;2022-10-16T13:44:03;1.10;;;1.00;;
4812;SDS011;2420;51.202;8.698;2022-10-16T13:46:30;1.38;;;1.00;;
4812;SDS011;2420;51.202;8.698;2022-10-16T13:49:11;1.65;;;1.00;;
4812;SDS011;2420;51.202;8.698;2022-10-16T13:51:41;1.05;;;0.82;;
4812;SDS011;2420;51.202;8.698;2022-10-16T13:54:22;1.00;;;0.93;;
4812;SDS011;2420;51.202;8.698;2022-10-16T13:56:49;1.83;;;0.90;;
4812;SDS011;2420;51.202;8.698;2022-10-16T13:59:24;1.85;;;1.00;;
4812;SDS011;2420;51.202;8.698;2022-10-16T14:01:53;1.13;;;0.90;;
4812;SDS011;2420;51.202;8.698;2022-10-16T14:04:21;2.20;;;1.05;;
4812;SDS011;2420;51.202;8.698;2022-10-16T14:06:49;1.20;;;1.00;;
4812;SDS011;2420;51.202;8.698;2022-10-16T14:11:55;2.55;;;1.05;;
4812;SDS011;2420;51.202;8.698;2022-10-16T14:14:27;2.65;;;1.00;;
4812;SDS011;2420;51.202;8.698;2022-10-16T14:17:05;4.53;;;1.23;;
4812;SDS011;2420;51.202;8.698;2022-10-16T14:19:30;1.10;;;1.00;;
4812;SDS011;2420;51.202;8.698;2022-10-16T14:21:57;1.77;;;0.90;;
4812;SDS011;2420;51.202;8.698;2022-10-16T14:24:34;1.00;;;0.90;;
4812;SDS011;2420;51.202;8.698;2022-10-16T14:27:00;1.00;;;0.88;;
4812;SDS011;2420;51.202;8.698;2022-10-16T14:29:26;4.63;;;1.30;;
4812;SDS011;2420;51.202;8.698;2022-10-16T14:34:33;2.70;;;2.50;;
4812;SDS011;2420;51.202;8.698;2022-10-16T14:37:24;2.92;;;2.63;;
4812;SDS011;2420;51.202;8.698;2022-10-16T14:39:51;1.48;;;1.38;;
4812;SDS011;2420;51.202;8.698;2022-10-16T14:42:18;2.03;;;1.45;;
4812;SDS011;2420;51.202;8.698;2022-10-16T14:44:48;1.33;;;1.00;;
4812;SDS011;2420;51.202;8.698;2022-10-16T14:47:18;2.88;;;1.20;;
4812;SDS011;2420;51.202;8.698;2022-10-16T14:49:49;1.55;;;1.00;;
4812;SDS011;2420;51.202;8.698;2022-10-16T14:52:14;3.08;;;1.00;;
4812;SDS011;2420;51.202;8.698;2022-10-16T14:54:40;1.48;;;1.38;;
4812;SDS011;2420;51.202;8.698;2022-10-16T14:57:13;3.10;;;1.70;;
4812;SDS011;2420;51.202;8.698;2022-10-16T14:59:46;2.67;;;1.38;;
4812;SDS011;2420;51.202;8.698;2022-10-16T15:02:18;1.40;;;1.30;;
4812;SDS011;2420;51.202;8.698;2022-10-16T15:04:45;2.08;;;1.30;;
4812;SDS011;2420;51.202;8.698;2022-10-16T15:07:10;1.35;;;1.25;;
4812;SDS011;2420;51.202;8.698;2022-10-16T15:09:36;2.08;;;1.38;;
4812;SDS011;2420;51.202;8.698;2022-10-16T15:12:01;1.42;;;1.33;;
4812;SDS011;2420;51.202;8.698;2022-10-16T15:14:27;5.95;;;2.95;;
4812;SDS011;2420;51.202;8.698;2022-10-16T15:16:53;2.50;;;2.30;;
4812;SDS011;2420;51.202;8.698;2022-10-16T15:19:18;1.80;;;1.58;;
4812;SDS011;2420;51.202;8.698;2022-10-16T15:21:44;1.40;;;1.30;;
4812;SDS011;2420;51.202;8.698;2022-10-16T15:24:11;1.15;;;1.05;;
4812;SDS011;2420;51.202;8.698;2022-10-16T15:26:38;2.40;;;1.00;;
4812;SDS011;2420;51.202;8.698;2022-10-16T15:29:04;3.25;;;1.20;;
4812;SDS011;2420;51.202;8.698;2022-10-16T15:31:29;2.15;;;1.10;;
4812;SDS011;2420;51.202;8.698;2022-10-16T15:33:55;1.15;;;1.05;;
4812;SDS011;2420;51.202;8.698;2022-10-16T15:36:30;1.38;;;1.10;;
4812;SDS011;2420;51.202;8.698;2022-10-16T15:39:05;1.30;;;1.20;;
4812;SDS011;2420;51.202;8.698;2022-10-16T15:41:39;2.47;;;1.38;;
4812;SDS011;2420;51.202;8.698;2022-10-16T15:44:05;12.88;;;8.20;;
4812;SDS011;2420;51.202;8.698;2022-10-16T15:46:30;2.40;;;1.85;;
4812;SDS011;2420;51.202;8.698;2022-10-16T15:48:58;3.00;;;1.40;;
4812;SDS011;2420;51.202;8.698;2022-10-16T15:51:24;4.55;;;2.20;;
4812;SDS011;2420;51.202;8.698;2022-10-16T15:53:54;2.58;;;2.20;;
4812;SDS011;2420;51.202;8.698;2022-10-16T15:56:23;4.88;;;3.10;;
4812;SDS011;2420;51.202;8.698;2022-10-16T15:58:50;7.57;;;3.78;;
4812;SDS011;2420;51.202;8.698;2022-10-16T16:01:17;2.67;;;2.05;;
4812;SDS011;2420;51.202;8.698;2022-10-16T16:03:42;6.05;;;1.60;;
4812;SDS011;2420;51.202;8.698;2022-10-16T16:06:10;2.00;;;1.80;;
4812;SDS011;2420;51.202;8.698;2022-10-16T16:08:37;2.47;;;1.48;;
4812;SDS011;2420;51.202;8.698;2022-10-16T16:11:04;3.55;;;1.50;;
4812;SDS011;2420;51.202;8.698;2022-10-16T16:13:34;4.57;;;1.65;;
4812;SDS011;2420;51.202;8.698;2022-10-16T16:16:05;1.83;;;1.30;;
4812;SDS011;2420;51.202;8.698;2022-10-16T16:18:34;1.60;;;1.50;;
4812;SDS011;2420;51.202;8.698;2022-10-16T16:21:00;1.40;;;1.30;;
4812;SDS011;2420;51.202;8.698;2022-10-16T16:23:26;1.58;;;1.25;;
4812;SDS011;2420;51.202;8.698;2022-10-16T16:28:39;2.20;;;1.40;;
4812;SDS011;2420;51.202;8.698;2022-10-16T16:31:05;3.92;;;1.50;;
4812;SDS011;2420;51.202;8.698;2022-10-16T16:33:31;1.30;;;1.20;;
4812;SDS011;2420;51.202;8.698;2022-10-16T16:35:58;1.75;;;1.30;;
4812;SDS011;2420;51.202;8.698;2022-10-16T16:38:24;2.47;;;1.38;;
4812;SDS011;2420;51.202;8.698;2022-10-16T16:40:50;2.70;;;1.40;;
4812;SDS011;2420;51.202;8.698;2022-10-16T16:43:17;3.30;;;2.70;;
4812;SDS011;2420;51.202;8.698;2022-10-16T16:45:43;9.32;;;4.80;;
4812;SDS011;2420;51.202;8.698;2022-10-16T16:48:08;7.00;;;4.80;;
4812;SDS011;2420;51.202;8.698;2022-10-16T16:50:36;9.63;;;4.97;;
4812;SDS011;2420;51.202;8.698;2022-10-16T16:53:02;6.05;;;4.82;;
4812;SDS011;2420;51.202;8.698;2022-10-16T16:55:28;6.53;;;4.60;;
4812;SDS011;2420;51.202;8.698;2022-10-16T16:57:54;4.93;;;4.40;;
4812;SDS011;2420;51.202;8.698;2022-10-16T17:00:19;4.70;;;4.15;;
4812;SDS011;2420;51.202;8.698;2022-10-16T17:02:48;3.60;;;2.80;;
4812;SDS011;2420;51.202;8.698;2022-10-16T17:05:14;3.58;;;2.70;;
4812;SDS011;2420;51.202;8.698;2022-10-16T17:07:40;4.25;;;2.65;;
4812;SDS011;2420;51.202;8.698;2022-10-16T17:10:06;2.55;;;2.22;;
4812;SDS011;2420;51.202;8.698;2022-10-16T17:12:33;3.55;;;2.80;;
4812;SDS011;2420;51.202;8.698;2022-10-16T17:14:58;2.60;;;2.40;;
4812;SDS011;2420;51.202;8.698;2022-10-16T17:17:24;6.75;;;3.17;;
4812;SDS011;2420;51.202;8.698;2022-10-16T17:19:50;4.97;;;3.53;;